sensor_id;sensor_type;location;lat;lon;timestamp;P1;durP1;ratioP1;P2;durP2;ratioP2
6197;SDS011;3132;42.622;23.328;2024-02-26T00:01:22;13.50;;;11.47;;
6197;SDS011;3132;42.622;23.328;2024-02-26T00:03:48;13.83;;;12.63;;
6197;SDS011;3132;42.622;23.328;2024-02-26T00:06:13;12.00;;;11.20;;
6197;SDS011;3132;42.622;23.328;2024-02-26T00:08:39;14.13;;;12.87;;
6197;SDS011;3132;42.622;23.328;2024-02-26T00:11:04;13.80;;;12.70;;
6197;SDS011;3132;42.622;23.328;2024-02-26T00:13:29;14.47;;;13.30;;
6197;SDS011;3132;42.622;23.328;2024-02-26T00:15:55;14.33;;;13.17;;
6197;SDS011;3132;42.622;23.328;2024-02-26T00:18:20;13.93;;;12.97;;
6197;SDS011;3132;42.622;23.328;2024-02-26T00:20:45;14.43;;;13.20;;
6197;SDS011;3132;42.622;23.328;2024-02-26T00:23:11;12.77;;;11.80;;
6197;SDS011;3132;42.622;23.328;2024-02-26T00:25:36;14.57;;;13.27;;
6197;SDS011;3132;42.622;23.328;2024-02-26T00:28:03;14.70;;;13.30;;
6197;SDS011;3132;42.622;23.328;2024-02-26T00:30:29;17.50;;;13.00;;
6197;SDS011;3132;42.622;23.328;2024-02-26T00:32:55;14.60;;;13.30;;
6197;SDS011;3132;42.622;23.328;2024-02-26T00:35:21;12.60;;;11.43;;
6197;SDS011;3132;42.622;23.328;2024-02-26T00:37:46;25.77;;;15.40;;
6197;SDS011;3132;42.622;23.328;2024-02-26T00:40:12;24.73;;;17.47;;
6197;SDS011;3132;42.622;23.328;2024-02-26T00:42:37;23.77;;;18.00;;
6197;SDS011;3132;42.622;23.328;2024-02-26T00:45:03;22.67;;;18.07;;
6197;SDS011;3132;42.622;23.328;2024-02-26T00:47:28;24.17;;;18.43;;
6197;SDS011;3132;42.622;23.328;2024-02-26T00:49:53;28.73;;;19.00;;
6197;SDS011;3132;42.622;23.328;2024-02-26T00:52:19;18.93;;;16.97;;
6197;SDS011;3132;42.622;23.328;2024-02-26T00:54:44;19.77;;;16.10;;
6197;SDS011;3132;42.622;23.328;2024-02-26T00:57:10;17.60;;;15.90;;
6197;SDS011;3132;42.622;23.328;2024-02-26T00:59:35;15.63;;;14.17;;
6197;SDS011;3132;42.622;23.328;2024-02-26T01:02:00;15.90;;;14.23;;
6197;SDS011;3132;42.622;23.328;2024-02-26T01:04:27;16.13;;;14.07;;
6197;SDS011;3132;42.622;23.328;2024-02-26T01:06:52;15.70;;;13.80;;
6197;SDS011;3132;42.622;23.328;2024-02-26T01:09:18;15.60;;;14.00;;
6197;SDS011;3132;42.622;23.328;2024-02-26T01:11:43;15.13;;;13.67;;
6197;SDS011;3132;42.622;23.328;2024-02-26T01:14:09;15.40;;;13.60;;
6197;SDS011;3132;42.622;23.328;2024-02-26T01:16:34;15.93;;;14.37;;
6197;SDS011;3132;42.622;23.328;2024-02-26T01:19:00;15.83;;;14.30;;
6197;SDS011;3132;42.622;23.328;2024-02-26T01:21:25;16.43;;;14.80;;
6197;SDS011;3132;42.622;23.328;2024-02-26T01:23:54;19.80;;;16.03;;
6197;SDS011;3132;42.622;23.328;2024-02-26T01:26:19;14.57;;;13.47;;
6197;SDS011;3132;42.622;23.328;2024-02-26T01:28:44;15.37;;;13.93;;
6197;SDS011;3132;42.622;23.328;2024-02-26T01:31:10;15.60;;;14.30;;
6197;SDS011;3132;42.622;23.328;2024-02-26T01:33:35;17.67;;;14.43;;
6197;SDS011;3132;42.622;23.328;2024-02-26T01:36:01;20.33;;;15.63;;
6197;SDS011;3132;42.622;23.328;2024-02-26T01:38:26;17.37;;;15.57;;
6197;SDS011;3132;42.622;23.328;2024-02-26T01:40:52;16.50;;;14.83;;
6197;SDS011;3132;42.622;23.328;2024-02-26T01:43:18;16.93;;;14.53;;
6197;SDS011;3132;42.622;23.328;2024-02-26T01:45:43;14.63;;;13.30;;
6197;SDS011;3132;42.622;23.328;2024-02-26T01:48:08;14.50;;;13.20;;
6197;SDS011;3132;42.622;23.328;2024-02-26T01:50:35;13.87;;;12.53;;
6197;SDS011;3132;42.622;23.328;2024-02-26T01:53:03;15.20;;;13.57;;
6197;SDS011;3132;42.622;23.328;2024-02-26T01:55:29;14.67;;;13.57;;
6197;SDS011;3132;42.622;23.328;2024-02-26T01:57:54;14.50;;;13.20;;
6197;SDS011;3132;42.622;23.328;2024-02-26T02:00:20;16.03;;;14.53;;
6197;SDS011;3132;42.622;23.328;2024-02-26T02:02:46;16.13;;;14.43;;
6197;SDS011;3132;42.622;23.328;2024-02-26T02:05:14;17.60;;;14.40;;
6197;SDS011;3132;42.622;23.328;2024-02-26T02:07:42;16.07;;;14.33;;
6197;SDS011;3132;42.622;23.328;2024-02-26T02:10:08;15.93;;;14.73;;
6197;SDS011;3132;42.622;23.328;2024-02-26T02:12:34;15.53;;;14.10;;
6197;SDS011;3132;42.622;23.328;2024-02-26T02:15:01;14.97;;;13.40;;
6197;SDS011;3132;42.622;23.328;2024-02-26T02:17:26;15.53;;;14.13;;
6197;SDS011;3132;42.622;23.328;2024-02-26T02:19:53;15.57;;;13.90;;
6197;SDS011;3132;42.622;23.328;2024-02-26T02:22:18;14.73;;;13.00;;
6197;SDS011;3132;42.622;23.328;2024-02-26T02:24:44;16.07;;;14.63;;
6197;SDS011;3132;42.622;23.328;2024-02-26T02:27:10;14.87;;;13.33;;
6197;SDS011;3132;42.622;23.328;2024-02-26T02:29:35;16.20;;;14.73;;
6197;SDS011;3132;42.622;23.328;2024-02-26T02:32:02;16.13;;;14.73;;
6197;SDS011;3132;42.622;23.328;2024-02-26T02:34:29;16.13;;;14.33;;
6197;SDS011;3132;42.622;23.328;2024-02-26T02:36:56;15.20;;;13.70;;
6197;SDS011;3132;42.622;23.328;2024-02-26T02:39:21;14.83;;;13.53;;
6197;SDS011;3132;42.622;23.328;2024-02-26T02:41:47;14.83;;;13.57;;
6197;SDS011;3132;42.622;23.328;2024-02-26T02:44:12;15.03;;;13.73;;
6197;SDS011;3132;42.622;23.328;2024-02-26T02:46:38;15.50;;;14.20;;
6197;SDS011;3132;42.622;23.328;2024-02-26T02:49:04;14.30;;;13.20;;
6197;SDS011;3132;42.622;23.328;2024-02-26T02:51:32;15.50;;;13.97;;
6197;SDS011;3132;42.622;23.328;2024-02-26T02:53:58;15.27;;;13.97;;
6197;SDS011;3132;42.622;23.328;2024-02-26T02:56:23;14.43;;;13.40;;
6197;SDS011;3132;42.622;23.328;2024-02-26T02:58:48;15.97;;;14.47;;
6197;SDS011;3132;42.622;23.328;2024-02-26T03:01:14;16.07;;;14.37;;
6197;SDS011;3132;42.622;23.328;2024-02-26T03:03:39;18.20;;;14.60;;
6197;SDS011;3132;42.622;23.328;2024-02-26T03:06:04;14.77;;;13.47;;
6197;SDS011;3132;42.622;23.328;2024-02-26T03:08:30;16.10;;;14.77;;
6197;SDS011;3132;42.622;23.328;2024-02-26T03:10:55;14.30;;;12.90;;
6197;SDS011;3132;42.622;23.328;2024-02-26T03:13:21;15.00;;;13.77;;
6197;SDS011;3132;42.622;23.328;2024-02-26T03:15:46;14.87;;;13.47;;
6197;SDS011;3132;42.622;23.328;2024-02-26T03:18:11;15.37;;;14.13;;
6197;SDS011;3132;42.622;23.328;2024-02-26T03:20:37;15.10;;;13.93;;
6197;SDS011;3132;42.622;23.328;2024-02-26T03:23:02;15.07;;;13.77;;
6197;SDS011;3132;42.622;23.328;2024-02-26T03:25:28;15.20;;;14.07;;
6197;SDS011;3132;42.622;23.328;2024-02-26T03:27:53;13.47;;;12.10;;
6197;SDS011;3132;42.622;23.328;2024-02-26T03:30:18;13.70;;;12.60;;
6197;SDS011;3132;42.622;23.328;2024-02-26T03:32:44;16.93;;;12.47;;
6197;SDS011;3132;42.622;23.328;2024-02-26T03:35:09;14.43;;;12.20;;
6197;SDS011;3132;42.622;23.328;2024-02-26T03:37:34;14.10;;;13.00;;
6197;SDS011;3132;42.622;23.328;2024-02-26T03:40:00;13.80;;;11.67;;
6197;SDS011;3132;42.622;23.328;2024-02-26T03:42:26;12.97;;;11.90;;
6197;SDS011;3132;42.622;23.328;2024-02-26T03:44:52;13.70;;;12.47;;
6197;SDS011;3132;42.622;23.328;2024-02-26T03:47:17;13.83;;;12.53;;
6197;SDS011;3132;42.622;23.328;2024-02-26T03:49:42;13.13;;;12.13;;
6197;SDS011;3132;42.622;23.328;2024-02-26T03:52:08;13.10;;;12.07;;
6197;SDS011;3132;42.622;23.328;2024-02-26T03:54:33;13.80;;;12.77;;
6197;SDS011;3132;42.622;23.328;2024-02-26T03:56:58;12.30;;;11.23;;
6197;SDS011;3132;42.622;23.328;2024-02-26T03:59:24;15.60;;;12.97;;
6197;SDS011;3132;42.622;23.328;2024-02-26T04:01:50;15.00;;;13.77;;
6197;SDS011;3132;42.622;23.328;2024-02-26T04:04:16;12.90;;;11.73;;
6197;SDS011;3132;42.622;23.328;2024-02-26T04:06:45;12.63;;;11.63;;
6197;SDS011;3132;42.622;23.328;2024-02-26T04:09:11;13.63;;;12.40;;
6197;SDS011;3132;42.622;23.328;2024-02-26T04:11:37;12.77;;;11.77;;
6197;SDS011;3132;42.622;23.328;2024-02-26T04:14:02;14.13;;;12.83;;
6197;SDS011;3132;42.622;23.328;2024-02-26T04:16:28;13.90;;;12.70;;
6197;SDS011;3132;42.622;23.328;2024-02-26T04:18:54;13.33;;;12.13;;
6197;SDS011;3132;42.622;23.328;2024-02-26T04:21:19;13.70;;;12.47;;
6197;SDS011;3132;42.622;23.328;2024-02-26T04:23:45;14.00;;;12.80;;
6197;SDS011;3132;42.622;23.328;2024-02-26T04:26:10;13.93;;;12.93;;
6197;SDS011;3132;42.622;23.328;2024-02-26T04:28:35;13.93;;;12.93;;
6197;SDS011;3132;42.622;23.328;2024-02-26T04:31:01;17.33;;;12.97;;
6197;SDS011;3132;42.622;23.328;2024-02-26T04:33:26;15.73;;;14.30;;
6197;SDS011;3132;42.622;23.328;2024-02-26T04:35:52;13.73;;;12.70;;
6197;SDS011;3132;42.622;23.328;2024-02-26T04:38:17;13.40;;;12.37;;
6197;SDS011;3132;42.622;23.328;2024-02-26T04:40:43;13.47;;;12.50;;
6197;SDS011;3132;42.622;23.328;2024-02-26T04:43:08;11.47;;;10.67;;
6197;SDS011;3132;42.622;23.328;2024-02-26T04:45:33;13.43;;;12.33;;
6197;SDS011;3132;42.622;23.328;2024-02-26T04:47:59;13.17;;;12.27;;
6197;SDS011;3132;42.622;23.328;2024-02-26T04:50:24;12.90;;;11.90;;
6197;SDS011;3132;42.622;23.328;2024-02-26T04:52:50;13.17;;;12.00;;
6197;SDS011;3132;42.622;23.328;2024-02-26T04:55:15;14.17;;;12.83;;
6197;SDS011;3132;42.622;23.328;2024-02-26T04:57:40;14.50;;;13.40;;
6197;SDS011;3132;42.622;23.328;2024-02-26T05:00:06;14.17;;;12.87;;
6197;SDS011;3132;42.622;23.328;2024-02-26T05:02:32;16.23;;;14.83;;
6197;SDS011;3132;42.622;23.328;2024-02-26T05:04:58;14.87;;;13.40;;
6197;SDS011;3132;42.622;23.328;2024-02-26T05:07:24;15.10;;;13.40;;
6197;SDS011;3132;42.622;23.328;2024-02-26T05:09:49;15.73;;;14.20;;
6197;SDS011;3132;42.622;23.328;2024-02-26T05:12:14;15.97;;;14.57;;
6197;SDS011;3132;42.622;23.328;2024-02-26T05:14:40;15.70;;;14.10;;
6197;SDS011;3132;42.622;23.328;2024-02-26T05:17:05;16.33;;;14.97;;
6197;SDS011;3132;42.622;23.328;2024-02-26T05:19:31;15.97;;;14.37;;
6197;SDS011;3132;42.622;23.328;2024-02-26T05:21:56;16.30;;;14.80;;
6197;SDS011;3132;42.622;23.328;2024-02-26T05:24:22;17.47;;;15.97;;
6197;SDS011;3132;42.622;23.328;2024-02-26T05:26:47;16.63;;;15.13;;
6197;SDS011;3132;42.622;23.328;2024-02-26T05:29:13;19.13;;;16.93;;
6197;SDS011;3132;42.622;23.328;2024-02-26T05:31:38;19.60;;;16.87;;
6197;SDS011;3132;42.622;23.328;2024-02-26T05:34:04;21.00;;;17.77;;
6197;SDS011;3132;42.622;23.328;2024-02-26T05:36:29;20.57;;;17.43;;
6197;SDS011;3132;42.622;23.328;2024-02-26T05:38:58;21.17;;;17.60;;
6197;SDS011;3132;42.622;23.328;2024-02-26T05:41:25;20.60;;;18.70;;
6197;SDS011;3132;42.622;23.328;2024-02-26T05:43:51;21.50;;;19.43;;
6197;SDS011;3132;42.622;23.328;2024-02-26T05:46:17;20.80;;;18.77;;
6197;SDS011;3132;42.622;23.328;2024-02-26T05:48:47;21.63;;;19.43;;
6197;SDS011;3132;42.622;23.328;2024-02-26T05:51:13;21.73;;;19.43;;
6197;SDS011;3132;42.622;23.328;2024-02-26T05:53:38;27.17;;;20.10;;
6197;SDS011;3132;42.622;23.328;2024-02-26T05:56:05;26.30;;;21.40;;
6197;SDS011;3132;42.622;23.328;2024-02-26T05:58:31;23.30;;;20.77;;
6197;SDS011;3132;42.622;23.328;2024-02-26T06:00:57;22.73;;;20.33;;
6197;SDS011;3132;42.622;23.328;2024-02-26T06:03:22;24.53;;;21.53;;
6197;SDS011;3132;42.622;23.328;2024-02-26T06:05:47;23.00;;;19.63;;
6197;SDS011;3132;42.622;23.328;2024-02-26T06:08:13;23.07;;;19.57;;
6197;SDS011;3132;42.622;23.328;2024-02-26T06:10:39;21.83;;;19.33;;
6197;SDS011;3132;42.622;23.328;2024-02-26T06:13:04;23.63;;;20.63;;
6197;SDS011;3132;42.622;23.328;2024-02-26T06:15:30;22.73;;;19.37;;
6197;SDS011;3132;42.622;23.328;2024-02-26T06:17:55;26.80;;;20.23;;
6197;SDS011;3132;42.622;23.328;2024-02-26T06:20:21;23.07;;;19.57;;
6197;SDS011;3132;42.622;23.328;2024-02-26T06:22:46;28.53;;;20.27;;
6197;SDS011;3132;42.622;23.328;2024-02-26T06:25:11;22.83;;;20.37;;
6197;SDS011;3132;42.622;23.328;2024-02-26T06:27:37;25.07;;;20.57;;
6197;SDS011;3132;42.622;23.328;2024-02-26T06:30:02;24.47;;;20.17;;
6197;SDS011;3132;42.622;23.328;2024-02-26T06:32:28;23.80;;;20.33;;
6197;SDS011;3132;42.622;23.328;2024-02-26T06:34:54;23.93;;;20.30;;
6197;SDS011;3132;42.622;23.328;2024-02-26T06:37:20;27.47;;;20.07;;
6197;SDS011;3132;42.622;23.328;2024-02-26T06:39:45;23.00;;;19.13;;
6197;SDS011;3132;42.622;23.328;2024-02-26T06:42:11;29.90;;;20.63;;
6197;SDS011;3132;42.622;23.328;2024-02-26T06:44:37;25.77;;;21.80;;
6197;SDS011;3132;42.622;23.328;2024-02-26T06:47:02;35.37;;;25.93;;
6197;SDS011;3132;42.622;23.328;2024-02-26T06:49:27;33.07;;;25.00;;
6197;SDS011;3132;42.622;23.328;2024-02-26T06:51:53;37.47;;;27.87;;
6197;SDS011;3132;42.622;23.328;2024-02-26T06:54:19;32.23;;;26.37;;
6197;SDS011;3132;42.622;23.328;2024-02-26T06:56:44;33.83;;;26.37;;
6197;SDS011;3132;42.622;23.328;2024-02-26T06:59:10;35.40;;;25.33;;
6197;SDS011;3132;42.622;23.328;2024-02-26T07:01:35;29.00;;;24.47;;
6197;SDS011;3132;42.622;23.328;2024-02-26T07:04:01;30.17;;;22.20;;
6197;SDS011;3132;42.622;23.328;2024-02-26T07:06:29;27.13;;;23.53;;
6197;SDS011;3132;42.622;23.328;2024-02-26T07:08:54;26.80;;;21.80;;
6197;SDS011;3132;42.622;23.328;2024-02-26T07:11:20;22.27;;;19.77;;
6197;SDS011;3132;42.622;23.328;2024-02-26T07:13:46;29.80;;;23.00;;
6197;SDS011;3132;42.622;23.328;2024-02-26T07:16:11;32.20;;;24.97;;
6197;SDS011;3132;42.622;23.328;2024-02-26T07:18:37;30.63;;;22.63;;
6197;SDS011;3132;42.622;23.328;2024-02-26T07:21:04;31.40;;;23.77;;
6197;SDS011;3132;42.622;23.328;2024-02-26T07:23:30;32.03;;;24.03;;
6197;SDS011;3132;42.622;23.328;2024-02-26T07:25:56;32.10;;;22.53;;
6197;SDS011;3132;42.622;23.328;2024-02-26T07:28:21;27.00;;;21.60;;
6197;SDS011;3132;42.622;23.328;2024-02-26T07:30:47;22.53;;;20.10;;
6197;SDS011;3132;42.622;23.328;2024-02-26T07:33:12;26.90;;;22.87;;
6197;SDS011;3132;42.622;23.328;2024-02-26T07:35:37;27.33;;;22.77;;
6197;SDS011;3132;42.622;23.328;2024-02-26T07:38:04;28.40;;;23.53;;
6197;SDS011;3132;42.622;23.328;2024-02-26T07:40:30;24.00;;;21.07;;
6197;SDS011;3132;42.622;23.328;2024-02-26T07:42:55;23.90;;;21.50;;
6197;SDS011;3132;42.622;23.328;2024-02-26T07:45:21;26.40;;;20.77;;
6197;SDS011;3132;42.622;23.328;2024-02-26T07:47:46;29.43;;;20.80;;
6197;SDS011;3132;42.622;23.328;2024-02-26T07:50:12;23.77;;;20.03;;
6197;SDS011;3132;42.622;23.328;2024-02-26T07:52:38;23.70;;;19.63;;
6197;SDS011;3132;42.622;23.328;2024-02-26T07:55:04;24.80;;;20.63;;
6197;SDS011;3132;42.622;23.328;2024-02-26T07:57:30;20.67;;;17.40;;
6197;SDS011;3132;42.622;23.328;2024-02-26T07:59:56;15.50;;;14.10;;
6197;SDS011;3132;42.622;23.328;2024-02-26T08:02:21;15.30;;;13.70;;
6197;SDS011;3132;42.622;23.328;2024-02-26T08:04:47;15.17;;;13.47;;
6197;SDS011;3132;42.622;23.328;2024-02-26T08:07:12;15.63;;;14.33;;
6197;SDS011;3132;42.622;23.328;2024-02-26T08:09:37;14.57;;;13.20;;
6197;SDS011;3132;42.622;23.328;2024-02-26T08:12:03;14.70;;;13.37;;
6197;SDS011;3132;42.622;23.328;2024-02-26T08:14:29;14.37;;;12.87;;
6197;SDS011;3132;42.622;23.328;2024-02-26T08:16:54;13.63;;;12.47;;
6197;SDS011;3132;42.622;23.328;2024-02-26T08:19:19;12.67;;;11.57;;
6197;SDS011;3132;42.622;23.328;2024-02-26T08:21:45;13.17;;;12.17;;
6197;SDS011;3132;42.622;23.328;2024-02-26T08:24:10;13.73;;;12.67;;
6197;SDS011;3132;42.622;23.328;2024-02-26T08:26:35;14.80;;;13.50;;
6197;SDS011;3132;42.622;23.328;2024-02-26T08:29:01;14.67;;;13.27;;
6197;SDS011;3132;42.622;23.328;2024-02-26T08:31:26;15.40;;;14.00;;
6197;SDS011;3132;42.622;23.328;2024-02-26T08:33:52;13.53;;;12.53;;
6197;SDS011;3132;42.622;23.328;2024-02-26T08:36:18;16.10;;;14.47;;
6197;SDS011;3132;42.622;23.328;2024-02-26T08:38:43;14.13;;;12.93;;
6197;SDS011;3132;42.622;23.328;2024-02-26T08:41:08;15.43;;;13.83;;
6197;SDS011;3132;42.622;23.328;2024-02-26T08:43:34;15.03;;;13.73;;
6197;SDS011;3132;42.622;23.328;2024-02-26T08:45:59;15.13;;;13.60;;
6197;SDS011;3132;42.622;23.328;2024-02-26T08:48:25;14.77;;;13.53;;
6197;SDS011;3132;42.622;23.328;2024-02-26T08:50:50;14.63;;;13.40;;
6197;SDS011;3132;42.622;23.328;2024-02-26T08:53:16;14.63;;;13.37;;
6197;SDS011;3132;42.622;23.328;2024-02-26T08:55:41;15.37;;;14.13;;
6197;SDS011;3132;42.622;23.328;2024-02-26T08:58:06;15.07;;;14.00;;
6197;SDS011;3132;42.622;23.328;2024-02-26T09:00:32;14.73;;;13.33;;
6197;SDS011;3132;42.622;23.328;2024-02-26T09:02:57;13.53;;;12.43;;
6197;SDS011;3132;42.622;23.328;2024-02-26T09:05:22;14.70;;;13.30;;
6197;SDS011;3132;42.622;23.328;2024-02-26T09:07:48;15.33;;;14.10;;
6197;SDS011;3132;42.622;23.328;2024-02-26T09:10:13;15.37;;;13.67;;
6197;SDS011;3132;42.622;23.328;2024-02-26T09:12:38;14.40;;;13.17;;
6197;SDS011;3132;42.622;23.328;2024-02-26T09:15:05;13.30;;;12.30;;
6197;SDS011;3132;42.622;23.328;2024-02-26T09:17:31;14.37;;;13.27;;
6197;SDS011;3132;42.622;23.328;2024-02-26T09:19:57;15.13;;;14.03;;
6197;SDS011;3132;42.622;23.328;2024-02-26T09:22:22;15.20;;;13.70;;
6197;SDS011;3132;42.622;23.328;2024-02-26T09:24:47;14.83;;;13.53;;
6197;SDS011;3132;42.622;23.328;2024-02-26T09:27:14;13.57;;;12.47;;
6197;SDS011;3132;42.622;23.328;2024-02-26T09:29:40;14.77;;;13.37;;
6197;SDS011;3132;42.622;23.328;2024-02-26T09:32:05;14.20;;;12.50;;
6197;SDS011;3132;42.622;23.328;2024-02-26T09:34:31;14.43;;;13.10;;
6197;SDS011;3132;42.622;23.328;2024-02-26T09:36:56;14.00;;;12.80;;
6197;SDS011;3132;42.622;23.328;2024-02-26T09:39:22;12.70;;;11.77;;
6197;SDS011;3132;42.622;23.328;2024-02-26T09:41:47;14.13;;;12.80;;
6197;SDS011;3132;42.622;23.328;2024-02-26T09:44:20;13.17;;;11.73;;
6197;SDS011;3132;42.622;23.328;2024-02-26T09:46:48;14.33;;;13.03;;
6197;SDS011;3132;42.622;23.328;2024-02-26T09:49:17;13.53;;;12.33;;
6197;SDS011;3132;42.622;23.328;2024-02-26T09:51:45;12.93;;;11.40;;
6197;SDS011;3132;42.622;23.328;2024-02-26T09:54:12;15.30;;;13.70;;
6197;SDS011;3132;42.622;23.328;2024-02-26T09:56:39;18.50;;;15.50;;
6197;SDS011;3132;42.622;23.328;2024-02-26T09:59:06;17.47;;;14.60;;
6197;SDS011;3132;42.622;23.328;2024-02-26T10:01:40;13.83;;;12.67;;
6197;SDS011;3132;42.622;23.328;2024-02-26T10:04:07;16.77;;;13.23;;
6197;SDS011;3132;42.622;23.328;2024-02-26T10:06:33;15.80;;;14.37;;
6197;SDS011;3132;42.622;23.328;2024-02-26T10:08:59;13.90;;;12.80;;
6197;SDS011;3132;42.622;23.328;2024-02-26T10:11:25;14.33;;;13.17;;
6197;SDS011;3132;42.622;23.328;2024-02-26T10:13:51;14.60;;;13.33;;
6197;SDS011;3132;42.622;23.328;2024-02-26T10:16:17;14.40;;;13.20;;
6197;SDS011;3132;42.622;23.328;2024-02-26T10:18:46;12.33;;;11.30;;
6197;SDS011;3132;42.622;23.328;2024-02-26T10:21:16;12.77;;;11.67;;
6197;SDS011;3132;42.622;23.328;2024-02-26T10:23:43;12.77;;;11.87;;
6197;SDS011;3132;42.622;23.328;2024-02-26T10:26:10;13.27;;;11.93;;
6197;SDS011;3132;42.622;23.328;2024-02-26T10:28:37;12.67;;;11.53;;
6197;SDS011;3132;42.622;23.328;2024-02-26T10:31:04;13.87;;;12.67;;
6197;SDS011;3132;42.622;23.328;2024-02-26T10:33:29;14.00;;;12.63;;
6197;SDS011;3132;42.622;23.328;2024-02-26T10:35:54;13.30;;;12.13;;
6197;SDS011;3132;42.622;23.328;2024-02-26T10:38:20;15.83;;;12.50;;
6197;SDS011;3132;42.622;23.328;2024-02-26T10:40:46;14.60;;;13.17;;
6197;SDS011;3132;42.622;23.328;2024-02-26T10:43:13;12.47;;;11.27;;
6197;SDS011;3132;42.622;23.328;2024-02-26T10:45:39;13.40;;;12.20;;
6197;SDS011;3132;42.622;23.328;2024-02-26T10:48:11;13.73;;;12.53;;
6197;SDS011;3132;42.622;23.328;2024-02-26T10:50:38;12.93;;;12.03;;
6197;SDS011;3132;42.622;23.328;2024-02-26T10:53:04;13.57;;;12.47;;
6197;SDS011;3132;42.622;23.328;2024-02-26T10:55:32;14.07;;;12.77;;
6197;SDS011;3132;42.622;23.328;2024-02-26T10:58:00;13.50;;;12.50;;
6197;SDS011;3132;42.622;23.328;2024-02-26T11:00:26;13.20;;;12.30;;
6197;SDS011;3132;42.622;23.328;2024-02-26T11:02:53;13.87;;;12.73;;
6197;SDS011;3132;42.622;23.328;2024-02-26T11:05:19;14.07;;;12.90;;
6197;SDS011;3132;42.622;23.328;2024-02-26T11:07:46;14.03;;;12.87;;
6197;SDS011;3132;42.622;23.328;2024-02-26T11:10:14;15.00;;;13.63;;
6197;SDS011;3132;42.622;23.328;2024-02-26T11:12:40;15.23;;;13.97;;
6197;SDS011;3132;42.622;23.328;2024-02-26T11:15:07;14.07;;;12.97;;
6197;SDS011;3132;42.622;23.328;2024-02-26T11:17:33;15.27;;;13.77;;
6197;SDS011;3132;42.622;23.328;2024-02-26T11:20:00;14.17;;;13.10;;
6197;SDS011;3132;42.622;23.328;2024-02-26T11:22:27;15.30;;;14.00;;
6197;SDS011;3132;42.622;23.328;2024-02-26T11:24:53;15.00;;;13.50;;
6197;SDS011;3132;42.622;23.328;2024-02-26T11:27:23;16.83;;;14.27;;
6197;SDS011;3132;42.622;23.328;2024-02-26T11:29:52;14.27;;;13.37;;
6197;SDS011;3132;42.622;23.328;2024-02-26T11:32:19;13.87;;;12.80;;
6197;SDS011;3132;42.622;23.328;2024-02-26T11:34:45;13.60;;;12.40;;
6197;SDS011;3132;42.622;23.328;2024-02-26T11:37:11;14.70;;;13.70;;
6197;SDS011;3132;42.622;23.328;2024-02-26T11:39:41;15.33;;;14.07;;
6197;SDS011;3132;42.622;23.328;2024-02-26T11:42:07;14.17;;;12.90;;
6197;SDS011;3132;42.622;23.328;2024-02-26T11:44:33;13.53;;;12.53;;
6197;SDS011;3132;42.622;23.328;2024-02-26T11:46:59;13.73;;;12.53;;
6197;SDS011;3132;42.622;23.328;2024-02-26T11:49:35;14.40;;;13.30;;
6197;SDS011;3132;42.622;23.328;2024-02-26T11:52:00;13.90;;;12.90;;
6197;SDS011;3132;42.622;23.328;2024-02-26T11:57:25;12.60;;;11.70;;
6197;SDS011;3132;42.622;23.328;2024-02-26T11:59:55;14.17;;;13.07;;
6197;SDS011;3132;42.622;23.328;2024-02-26T12:05:17;14.37;;;12.97;;
6197;SDS011;3132;42.622;23.328;2024-02-26T12:10:42;12.87;;;11.60;;
6197;SDS011;3132;42.622;23.328;2024-02-26T12:13:10;13.03;;;12.13;;
6197;SDS011;3132;42.622;23.328;2024-02-26T12:15:40;13.77;;;12.70;;
6197;SDS011;3132;42.622;23.328;2024-02-26T12:18:15;13.10;;;12.20;;
6197;SDS011;3132;42.622;23.328;2024-02-26T12:20:42;13.27;;;11.97;;
6197;SDS011;3132;42.622;23.328;2024-02-26T12:23:09;14.70;;;13.40;;
6197;SDS011;3132;42.622;23.328;2024-02-26T12:25:40;12.80;;;11.80;;
6197;SDS011;3132;42.622;23.328;2024-02-26T12:28:05;13.70;;;12.37;;
6197;SDS011;3132;42.622;23.328;2024-02-26T12:30:32;13.93;;;12.83;;
6197;SDS011;3132;42.622;23.328;2024-02-26T12:32:58;13.97;;;12.80;;
6197;SDS011;3132;42.622;23.328;2024-02-26T12:35:25;15.60;;;11.43;;
6197;SDS011;3132;42.622;23.328;2024-02-26T12:37:52;12.60;;;11.50;;
6197;SDS011;3132;42.622;23.328;2024-02-26T12:40:19;13.40;;;12.30;;
6197;SDS011;3132;42.622;23.328;2024-02-26T12:42:45;12.80;;;11.70;;
6197;SDS011;3132;42.622;23.328;2024-02-26T12:45:11;13.23;;;12.13;;
6197;SDS011;3132;42.622;23.328;2024-02-26T12:47:38;12.53;;;11.53;;
6197;SDS011;3132;42.622;23.328;2024-02-26T12:50:07;13.00;;;12.00;;
6197;SDS011;3132;42.622;23.328;2024-02-26T12:52:34;11.40;;;10.53;;
6197;SDS011;3132;42.622;23.328;2024-02-26T12:55:04;12.10;;;11.10;;
6197;SDS011;3132;42.622;23.328;2024-02-26T12:57:35;11.97;;;11.10;;
6197;SDS011;3132;42.622;23.328;2024-02-26T13:00:02;11.57;;;10.67;;
6197;SDS011;3132;42.622;23.328;2024-02-26T13:02:30;12.37;;;11.27;;
6197;SDS011;3132;42.622;23.328;2024-02-26T13:04:57;16.23;;;11.20;;
6197;SDS011;3132;42.622;23.328;2024-02-26T13:07:23;12.17;;;11.23;;
6197;SDS011;3132;42.622;23.328;2024-02-26T13:09:48;12.70;;;11.50;;
6197;SDS011;3132;42.622;23.328;2024-02-26T13:12:15;15.37;;;11.27;;
6197;SDS011;3132;42.622;23.328;2024-02-26T13:14:41;11.73;;;10.60;;
6197;SDS011;3132;42.622;23.328;2024-02-26T13:17:06;12.67;;;11.57;;
6197;SDS011;3132;42.622;23.328;2024-02-26T13:19:32;12.93;;;11.37;;
6197;SDS011;3132;42.622;23.328;2024-02-26T13:22:04;11.83;;;11.03;;
6197;SDS011;3132;42.622;23.328;2024-02-26T13:24:31;13.70;;;12.40;;
6197;SDS011;3132;42.622;23.328;2024-02-26T13:26:56;14.53;;;13.13;;
6197;SDS011;3132;42.622;23.328;2024-02-26T13:29:22;13.30;;;11.40;;
6197;SDS011;3132;42.622;23.328;2024-02-26T13:31:58;13.50;;;12.37;;
6197;SDS011;3132;42.622;23.328;2024-02-26T13:34:24;13.03;;;11.93;;
6197;SDS011;3132;42.622;23.328;2024-02-26T13:36:51;20.77;;;13.53;;
6197;SDS011;3132;42.622;23.328;2024-02-26T13:39:23;12.20;;;11.17;;
6197;SDS011;3132;42.622;23.328;2024-02-26T13:41:50;11.73;;;10.63;;
6197;SDS011;3132;42.622;23.328;2024-02-26T13:44:16;12.57;;;11.43;;
6197;SDS011;3132;42.622;23.328;2024-02-26T13:46:42;12.03;;;10.93;;
6197;SDS011;3132;42.622;23.328;2024-02-26T13:49:08;12.47;;;11.57;;
6197;SDS011;3132;42.622;23.328;2024-02-26T13:51:34;14.50;;;11.17;;
6197;SDS011;3132;42.622;23.328;2024-02-26T13:54:01;14.00;;;12.53;;
6197;SDS011;3132;42.622;23.328;2024-02-26T13:56:27;14.03;;;12.63;;
6197;SDS011;3132;42.622;23.328;2024-02-26T13:58:52;14.13;;;12.43;;
6197;SDS011;3132;42.622;23.328;2024-02-26T14:01:17;12.77;;;11.60;;
6197;SDS011;3132;42.622;23.328;2024-02-26T14:03:43;13.83;;;12.53;;
6197;SDS011;3132;42.622;23.328;2024-02-26T14:06:08;16.43;;;11.40;;
6197;SDS011;3132;42.622;23.328;2024-02-26T14:08:34;12.47;;;11.27;;
6197;SDS011;3132;42.622;23.328;2024-02-26T14:10:59;11.43;;;10.43;;
6197;SDS011;3132;42.622;23.328;2024-02-26T14:13:25;11.67;;;10.77;;
6197;SDS011;3132;42.622;23.328;2024-02-26T14:15:50;11.73;;;10.70;;
6197;SDS011;3132;42.622;23.328;2024-02-26T14:18:16;11.73;;;10.63;;
6197;SDS011;3132;42.622;23.328;2024-02-26T14:20:41;13.23;;;12.03;;
6197;SDS011;3132;42.622;23.328;2024-02-26T14:23:07;13.17;;;11.80;;
6197;SDS011;3132;42.622;23.328;2024-02-26T14:25:33;12.40;;;11.50;;
6197;SDS011;3132;42.622;23.328;2024-02-26T14:27:59;16.87;;;12.33;;
6197;SDS011;3132;42.622;23.328;2024-02-26T14:30:25;12.83;;;11.90;;
6197;SDS011;3132;42.622;23.328;2024-02-26T14:32:51;13.83;;;11.93;;
6197;SDS011;3132;42.622;23.328;2024-02-26T14:35:16;12.23;;;11.20;;